Time;durP1;ratioP1;P1;durP2;ratioP2;P2;SDS_P1;SDS_P2;PMS_P1;PMS_P2;Temp;Humidity;BMP_temperature;BMP_pressure;BME280_temperature;BME280_humidity;BME280_pressure;Samples;Min_cycle;Max_cycle;Signal;HPM_P1;HPM_P2
2023/06/12 00:02:02;;;;;;;4.73;4.30;;;24.80;69.80;;;;;;4906779;23;20569;-83
2023/06/12 00:13:10;;;;;;;3.90;3.60;;;24.40;69.00;;;;;;4684464;30;20865;-83
2023/06/12 00:45:16;;;;;;;;;;;;;;;;;;;;;
2023/06/12 00:48:21;;;;;;;4.97;4.47;;;24.00;72.40;;;;;;4929925;29;20598;-83
2023/06/12 01:15:55;;;;;;;5.60;4.83;;;23.60;72.70;;;;;;4851626;29;20512;-82
2023/06/12 01:19:27;;;;;;;5.77;5.20;;;23.60;74.00;;;;;;4855350;29;20476;-83
2023/06/12 01:34:38;;;;;;;5.43;4.80;;;23.50;73.30;;;;;;4852426;29;20749;-84
2023/06/12 01:55:07;;;;;;;5.50;5.03;;;23.70;80.30;;;;;;2965494;23;20503;-85
2023/06/12 01:58:35;;;;;;;5.00;4.60;;;23.70;82.10;;;;;;4897686;29;21753;-85
2023/06/12 02:02:17;;;;;;;5.10;4.70;;;23.70;83.00;;;;;;4869463;29;20478;-85
2023/06/12 02:05:43;;;;;;;4.60;4.20;;;23.40;83.20;;;;;;4856208;29;20477;-83
2023/06/12 02:08:46;;;;;;;5.17;4.67;;;24.10;85.10;;;;;;4810157;29;20485;-84
2023/06/12 02:11:45;;;;;;;;;;;;;;;;;;;;;
2023/06/12 02:14:41;;;;;;;4.77;4.37;;;23.60;85.00;;;;;;4846808;29;20476;-83
2023/06/12 02:17:21;;;;;;;6.70;6.10;;;23.40;85.50;;;;;;4855752;29;20582;-85
2023/06/12 02:20:20;;;;;;;6.27;5.67;;;23.40;87.00;;;;;;4849009;29;20485;-84
2023/06/12 02:22:50;;;;;;;5.57;4.70;;;23.30;87.90;;;;;;4858142;29;20467;-84
2023/06/12 02:25:52;;;;;;;5.73;5.23;;;23.20;88.90;;;;;;4856184;29;20462;-84
2023/06/12 02:28:33;;;;;;;8.07;5.43;;;23.40;90.00;;;;;;4869783;29;21418;-84
2023/06/12 02:31:09;;;;;;;6.30;5.73;;;23.00;89.80;;;;;;4869142;29;20472;-85
2023/06/12 02:34:05;;;;;;;5.30;4.80;;;23.20;90.20;;;;;;4868323;29;20492;-83
2023/06/12 02:36:47;;;;;;;5.20;4.70;;;22.90;91.00;;;;;;4856175;29;21237;-84
2023/06/12 02:39:18;;;;;;;5.30;4.80;;;22.80;91.10;;;;;;4855428;29;20486;-84
2023/06/12 02:41:58;;;;;;;4.97;4.57;;;22.90;91.20;;;;;;4855011;29;20483;-84
2023/06/12 02:44:40;;;;;;;7.10;4.80;;;22.90;91.50;;;;;;4894884;29;20460;-82
2023/06/12 02:47:31;;;;;;;5.10;4.70;;;23.00;90.40;;;;;;4884726;29;20460;-84
2023/06/12 02:50:27;;;;;;;5.53;5.03;;;23.10;90.00;;;;;;4894387;29;20486;-81
2023/06/12 02:53:17;;;;;;;5.73;5.23;;;23.00;89.50;;;;;;4880433;29;20490;-83
2023/06/12 02:56:04;;;;;;;5.30;4.90;;;23.40;90.40;;;;;;4904521;29;20459;-80
2023/06/12 02:58:44;;;;;;;5.87;5.30;;;22.80;89.00;;;;;;4906228;29;20843;-84
2023/06/12 03:01:20;;;;;;;7.30;4.93;;;22.50;87.40;;;;;;4898690;29;20471;-82
2023/06/12 03:04:03;;;;;;;5.43;4.93;;;23.10;86.10;;;;;;4915145;29;20498;-84
2023/06/12 03:06:55;;;;;;;6.40;6.00;;;22.50;83.20;;;;;;4899186;29;20521;-85
2023/06/12 03:09:51;;;;;;;5.37;4.70;;;22.60;81.60;;;;;;4904673;29;20481;-84
2023/06/12 03:12:33;;;;;;;5.60;5.10;;;22.90;84.40;;;;;;4913837;29;20459;-85
2023/06/12 03:15:26;;;;;;;5.13;4.73;;;22.30;82.50;;;;;;4905727;29;20478;-84
2023/06/12 03:17:58;;;;;;;4.77;4.37;;;22.40;83.20;;;;;;4903508;29;20495;-84
2023/06/12 03:20:45;;;;;;;5.27;4.87;;;22.30;84.70;;;;;;4900814;29;20487;-83
2023/06/12 03:23:17;;;;;;;5.17;4.63;;;22.30;82.40;;;;;;4892173;29;20550;-85
2023/06/12 03:25:54;;;;;;;5.67;5.17;;;22.40;82.20;;;;;;4881124;29;20462;-84
2023/06/12 03:28:21;;;;;;;5.40;4.90;;;22.70;80.90;;;;;;4894403;29;21767;-84
2023/06/12 03:30:57;;;;;;;5.97;5.47;;;22.60;81.30;;;;;;4871704;29;20487;-84
2023/06/12 03:33:31;;;;;;;6.20;5.00;;;22.10;80.70;;;;;;4889006;29;20575;-82
2023/06/12 03:36:08;;;;;;;5.97;5.47;;;22.60;81.90;;;;;;4875506;29;20980;-81
2023/06/12 03:39:03;;;;;;;6.13;5.47;;;22.60;82.20;;;;;;4879162;29;20474;-81
2023/06/12 03:42:02;;;;;;;6.40;5.80;;;22.00;83.40;;;;;;4868320;29;20542;-83
2023/06/12 03:47:57;;;;;;;6.60;5.30;;;21.80;82.10;;;;;;4879411;29;20519;-83
2023/06/12 03:50:43;;;;;;;6.07;5.57;;;22.10;83.80;;;;;;4868862;29;20533;-84
2023/06/12 03:53:14;;;;;;;10.13;6.00;;;21.90;83.60;;;;;;4876375;29;20463;-83
2023/06/12 03:56:01;;;;;;;5.63;5.13;;;21.80;84.80;;;;;;4875680;29;20470;-83
2023/06/12 03:58:35;;;;;;;6.27;5.67;;;21.60;83.90;;;;;;4879317;29;21019;-82
2023/06/12 04:01:18;;;;;;;6.77;6.07;;;21.90;84.10;;;;;;4876816;29;21232;-84
2023/06/12 04:04:05;;;;;;;6.13;5.63;;;22.30;84.50;;;;;;4867132;29;20677;-82
2023/06/12 04:06:49;;;;;;;6.93;6.20;;;22.70;86.20;;;;;;4877440;29;21009;-83
2023/06/12 04:09:20;;;;;;;6.87;5.47;;;21.80;83.40;;;;;;4882185;29;20491;-84
2023/06/12 04:11:52;;;;;;;5.50;4.80;;;21.80;84.40;;;;;;4882281;29;20759;-82
2023/06/12 04:14:21;;;;;;;5.40;4.90;;;21.60;83.80;;;;;;4863864;29;20468;-83
2023/06/12 04:17:17;;;;;;;5.67;5.10;;;21.50;84.30;;;;;;4884290;29;20514;-82
2023/06/12 04:19:48;;;;;;;6.03;5.43;;;21.00;83.80;;;;;;4871588;29;20475;-83
2023/06/12 04:22:19;;;;;;;6.53;5.90;;;21.50;84.60;;;;;;4864262;29;20463;-83
2023/06/12 04:24:55;;;;;;;6.30;5.70;;;21.20;85.40;;;;;;4872396;29;20474;-83
2023/06/12 04:27:33;;;;;;;6.40;5.60;;;21.30;84.50;;;;;;4890497;29;20497;-85
2023/06/12 04:30:10;;;;;;;5.53;5.03;;;21.40;86.40;;;;;;4890603;29;20485;-84
2023/06/12 04:33:02;;;;;;;7.03;5.67;;;21.40;85.60;;;;;;4908902;29;20463;-84
2023/06/12 04:35:37;;;;;;;6.87;5.53;;;21.80;85.60;;;;;;4886283;29;20462;-83
2023/06/12 04:38:10;;;;;;;5.90;4.70;;;21.30;83.60;;;;;;4901937;29;20485;-84
2023/06/12 04:40:44;;;;;;;5.67;5.07;;;21.60;83.60;;;;;;4900882;29;20474;-83
2023/06/12 04:43:21;;;;;;;5.50;4.90;;;21.40;83.80;;;;;;4876327;29;20464;-80
2023/06/12 04:45:55;;;;;;;7.10;5.60;;;21.50;85.10;;;;;;4897224;29;20478;-84
2023/06/12 04:48:36;;;;;;;6.93;5.63;;;21.40;85.60;;;;;;4894599;29;20846;-82
2023/06/12 04:51:13;;;;;;;9.30;5.97;;;21.60;85.60;;;;;;4898403;29;20482;-83
2023/06/12 04:53:47;;;;;;;8.00;6.37;;;21.60;85.30;;;;;;4878626;29;20466;-83
2023/06/12 04:56:25;;;;;;;11.93;6.47;;;21.70;85.50;;;;;;4890965;29;20452;-82
2023/06/12 04:58:53;;;;;;;7.37;6.30;;;21.70;85.80;;;;;;4888469;29;20744;-81
2023/06/12 05:01:22;;;;;;;9.97;5.93;;;21.70;85.80;;;;;;4890217;29;20475;-83
2023/06/12 05:03:52;;;;;;;10.77;6.53;;;21.60;86.10;;;;;;4888794;29;20642;-86
2023/06/12 05:06:28;;;;;;;7.57;6.13;;;21.70;84.70;;;;;;4889808;29;20468;-83
2023/06/12 05:09:06;;;;;;;8.80;5.80;;;21.50;84.40;;;;;;4872566;29;20504;-85
2023/06/12 05:11:43;;;;;;;8.30;5.90;;;22.00;84.20;;;;;;4896535;29;20474;-83
2023/06/12 05:14:20;;;;;;;7.80;5.50;;;21.80;84.70;;;;;;4883201;29;20982;-84
2023/06/12 05:17:12;;;;;;;7.90;6.23;;;21.90;85.10;;;;;;4899556;29;20480;-83
2023/06/12 05:19:44;;;;;;;6.90;6.20;;;21.90;85.10;;;;;;4899210;29;20479;-85
2023/06/12 05:22:44;;;;;;;5.20;4.70;;;22.20;85.10;;;;;;4887082;29;20451;-83
2023/06/12 05:25:11;;;;;;;6.20;5.50;;;21.80;85.00;;;;;;4900922;29;20451;-85
2023/06/12 05:27:41;;;;;;;5.70;5.20;;;21.30;84.60;;;;;;4904794;29;20459;-84
2023/06/12 05:30:15;;;;;;;5.97;5.47;;;21.70;85.40;;;;;;4891109;29;20480;-84
2023/06/12 05:33:00;;;;;;;9.00;5.80;;;21.90;85.20;;;;;;4914218;29;20465;-83
2023/06/12 05:35:35;;;;;;;8.50;6.07;;;22.40;84.20;;;;;;4903138;29;20447;-85
2023/06/12 05:38:11;;;;;;;6.53;5.50;;;22.50;83.50;;;;;;4912725;29;20486;-84
2023/06/12 05:40:46;;;;;;;7.37;6.40;;;22.70;84.40;;;;;;4901114;29;20485;-83
2023/06/12 05:43:45;;;;;;;7.70;6.00;;;22.40;83.80;;;;;;4899906;29;20431;-84
2023/06/12 05:46:22;;;;;;;6.07;5.47;;;22.30;83.50;;;;;;4898524;29;20455;-84
2023/06/12 05:48:52;;;;;;;5.70;5.20;;;22.40;84.50;;;;;;4893948;29;20460;-85
2023/06/12 05:51:33;;;;;;;6.43;5.83;;;22.10;85.50;;;;;;4896668;29;20520;-83
2023/06/12 05:54:06;;;;;;;5.87;5.37;;;22.30;84.90;;;;;;4902705;29;20452;-85
2023/06/12 05:57:03;;;;;;;;;;;;;;;;;;;;;
2023/06/12 06:02:07;;;;;;;5.90;5.10;;;22.20;85.80;;;;;;4895336;29;20487;-84
2023/06/12 06:04:35;;;;;;;6.20;5.20;;;22.30;85.40;;;;;;4892516;29;20576;-85
2023/06/12 06:07:07;;;;;;;6.77;6.13;;;22.30;85.60;;;;;;4841651;29;20462;-83
2023/06/12 06:09:44;;;;;;;6.30;5.00;;;21.10;83.60;;;;;;4879105;29;20503;-82
2023/06/12 06:12:15;;;;;;;5.57;4.93;;;22.50;85.00;;;;;;4876424;29;20471;-83
2023/06/12 06:15:06;;;;;;;5.40;4.90;;;22.40;84.70;;;;;;4863857;29;20473;-84
2023/06/12 06:17:45;;;;;;;6.20;5.60;;;22.60;85.30;;;;;;4872654;29;20470;-84
2023/06/12 06:20:22;;;;;;;5.30;4.90;;;22.90;86.50;;;;;;4896559;29;20538;-84
2023/06/12 06:22:50;;;;;;;5.77;5.10;;;22.90;83.40;;;;;;4898182;29;20471;-83
2023/06/12 06:25:24;;;;;;;6.27;5.60;;;22.80;83.30;;;;;;4893567;29;20807;-83
2023/06/12 06:27:53;;;;;;;5.37;4.87;;;23.10;84.60;;;;;;4879784;29;20470;-85
2023/06/12 06:30:34;;;;;;;5.67;5.17;;;23.10;82.90;;;;;;4889279;29;20487;-85
2023/06/12 06:33:03;;;;;;;6.43;5.83;;;23.90;83.70;;;;;;4880291;29;20964;-84
2023/06/12 06:35:30;;;;;;;5.67;5.17;;;23.10;81.50;;;;;;4876929;29;20459;-86
2023/06/12 06:38:05;;;;;;;6.87;4.93;;;23.40;82.50;;;;;;4891312;29;20523;-83
2023/06/12 06:40:32;;;;;;;6.13;5.53;;;23.50;82.50;;;;;;4875712;29;20542;-82
2023/06/12 06:43:19;;;;;;;6.03;5.17;;;23.40;81.50;;;;;;4892571;29;20473;-83
2023/06/12 06:45:59;;;;;;;7.63;5.37;;;23.50;81.90;;;;;;4875038;29;20467;-82
2023/06/12 06:48:42;;;;;;;5.70;5.20;;;23.60;80.80;;;;;;4869452;29;20583;-84
2023/06/12 06:51:25;;;;;;;5.90;5.40;;;23.70;80.90;;;;;;4973102;23;20497;-84
2023/06/12 06:54:13;;;;;;;5.83;5.30;;;23.70;80.20;;;;;;4944733;28;20448;-83
2023/06/12 06:57:33;;;;;;;5.93;5.33;;;23.50;80.80;;;;;;4944947;28;20568;-83
2023/06/12 07:01:01;;;;;;;5.73;5.23;;;23.80;81.30;;;;;;4914810;29;20893;-82
2023/06/12 07:03:40;;;;;;;8.70;5.93;;;24.00;80.70;;;;;;4927307;29;20456;-84
2023/06/12 07:06:13;;;;;;;5.53;5.03;;;24.30;79.50;;;;;;4907513;29;20461;-85
2023/06/12 07:08:56;;;;;;;5.17;4.77;;;24.50;79.90;;;;;;4911976;29;20484;-85
2023/06/12 07:11:31;;;;;;;5.27;4.77;;;24.30;78.80;;;;;;4926210;29;20469;-83
2023/06/12 07:14:35;;;;;;;5.43;4.87;;;24.30;79.10;;;;;;4925592;29;20466;-84
2023/06/12 07:17:10;;;;;;;5.07;4.67;;;24.50;80.60;;;;;;4930152;29;20544;-83
2023/06/12 07:19:50;;;;;;;5.30;4.80;;;24.60;78.80;;;;;;4929468;29;20516;-82
2023/06/12 07:22:22;;;;;;;5.50;5.10;;;24.90;78.60;;;;;;4913254;29;20520;-83
2023/06/12 07:24:55;;;;;;;5.40;4.90;;;24.90;77.40;;;;;;4911160;29;21884;-84
2023/06/12 07:27:51;;;;;;;5.90;5.30;;;25.10;76.40;;;;;;4931880;29;20443;-84
2023/06/12 07:30:37;;;;;;;5.27;4.77;;;24.90;77.20;;;;;;4916071;29;20485;-85
2023/06/12 07:33:26;;;;;;;5.77;5.27;;;24.90;77.40;;;;;;4904487;29;20454;-84
2023/06/12 07:36:03;;;;;;;5.60;5.07;;;25.20;79.10;;;;;;4930208;29;20505;-84
2023/06/12 07:38:44;;;;;;;5.80;5.30;;;25.10;78.40;;;;;;4904647;29;20489;-86
2023/06/12 07:41:50;;;;;;;6.37;5.60;;;25.10;77.20;;;;;;4931252;29;20457;-87
2023/06/12 07:48:38;;;;;;;5.60;5.20;;;25.50;77.70;;;;;;4936802;29;20449;-82
2023/06/12 07:51:23;;;;;;;6.13;5.60;;;25.60;78.00;;;;;;4927518;29;20509;-85
2023/06/12 07:57:41;;;;;;;5.10;4.70;;;25.70;77.90;;;;;;4940076;29;20491;-84
2023/06/12 08:00:35;;;;;;;5.43;5.03;;;25.50;77.30;;;;;;4924048;29;20517;-86
2023/06/12 08:03:29;;;;;;;5.53;5.10;;;25.60;77.10;;;;;;4921527;29;20446;-86
2023/06/12 08:06:39;;;;;;;5.97;5.43;;;25.20;77.60;;;;;;4926375;29;20409;-84
2023/06/12 08:09:41;;;;;;;6.40;4.80;;;25.60;78.90;;;;;;4927708;29;20466;-84
2023/06/12 08:12:12;;;;;;;5.63;5.13;;;25.80;77.40;;;;;;4928853;29;20458;-80
2023/06/12 08:14:53;;;;;;;6.30;4.93;;;26.00;77.70;;;;;;4940247;29;20555;-85
2023/06/12 08:17:28;;;;;;;5.43;4.80;;;26.10;77.10;;;;;;4920036;29;20485;-84
2023/06/12 08:20:09;;;;;;;6.13;5.63;;;26.50;75.80;;;;;;4918214;29;20751;-84
2023/06/12 08:22:48;;;;;;;5.43;5.03;;;26.30;75.80;;;;;;4927151;29;21143;-82
2023/06/12 08:25:28;;;;;;;4.97;4.57;;;26.50;77.40;;;;;;4924224;29;20976;-84
2023/06/12 08:28:10;;;;;;;6.50;5.80;;;;;;;;;;4931040;29;20481;-83
2023/06/12 08:30:54;;;;;;;5.60;5.10;;;26.70;75.20;;;;;;4900665;29;20493;-84
2023/06/12 08:33:34;;;;;;;5.63;5.13;;;27.00;75.00;;;;;;4924920;29;20482;-85
2023/06/12 08:36:10;;;;;;;5.57;5.17;;;27.60;75.10;;;;;;4936173;29;20469;-85
2023/06/12 08:38:39;;;;;;;6.23;5.73;;;27.10;74.10;;;;;;4921259;29;20544;-85
2023/06/12 08:42:00;;;;;;;5.67;5.17;;;27.00;74.80;;;;;;4921300;29;20493;-83
2023/06/12 08:44:46;;;;;;;5.23;4.73;;;28.30;76.20;;;;;;4922353;29;20523;-84
2023/06/12 08:47:39;;;;;;;5.17;4.77;;;27.80;73.60;;;;;;4917634;29;20464;-84
2023/06/12 08:50:19;;;;;;;5.73;5.23;;;28.30;73.30;;;;;;4917886;29;20517;-85
2023/06/12 08:53:08;;;;;;;5.87;5.47;;;28.70;71.30;;;;;;4922417;29;20461;-86
2023/06/12 08:56:21;;;;;;;;;;;;;;;;;;;;;
2023/06/12 09:06:09;;;;;;;6.83;5.40;;;29.00;70.50;;;;;;4935612;29;20423;-85
2023/06/12 09:09:39;;;;;;;;;;;;;;;;;;;;;
2023/06/12 09:12:48;;;;;;;;;;;;;;;;;;;;;
2023/06/12 09:16:20;;;;;;;6.00;5.50;;;29.60;69.80;;;;;;4787538;29;20480;-85
2023/06/12 09:19:45;;;;;;;5.50;5.10;;;30.20;68.10;;;;;;4687046;30;20497;-84
2023/06/12 09:33:05;;;;;;;4.90;4.50;;;31.30;64.80;;;;;;5538929;23;20511;-83
2023/06/12 09:36:04;;;;;;;5.37;4.97;;;30.40;64.60;;;;;;4903571;29;20463;-84
2023/06/12 09:38:53;;;;;;;5.03;4.70;;;30.90;64.80;;;;;;4899790;29;20500;-84
2023/06/12 09:41:40;;;;;;;4.70;4.30;;;31.20;64.10;;;;;;4892851;29;20558;-81
2023/06/12 09:44:30;;;;;;;5.33;4.83;;;31.00;63.70;;;;;;4890718;29;20539;-81
2023/06/12 09:47:33;;;;;;;5.33;4.90;;;32.00;61.70;;;;;;4901908;29;20464;-86
2023/06/12 09:50:43;;;;;;;5.30;4.90;;;32.10;63.60;;;;;;4877884;29;20479;-84
2023/06/12 09:53:58;;;;;;;5.30;4.90;;;31.50;64.00;;;;;;4879037;29;20521;-83
2023/06/12 09:56:53;;;;;;;6.17;5.70;;;32.50;63.70;;;;;;4903633;29;20461;-84
2023/06/12 09:59:58;;;;;;;5.33;4.93;;;31.60;63.70;;;;;;4891877;29;20505;-84
2023/06/12 10:06:23;;;;;;;6.17;5.67;;;32.10;64.30;;;;;;4898010;29;20470;-86
2023/06/12 10:09:38;;;;;;;;;;;;;;;;;;;;;
2023/06/12 10:12:32;;;;;;;;;;;;;;;;;;;;;
2023/06/12 10:15:47;;;;;;;;;;;;;;;;;;;;;
2023/06/12 10:18:47;;;;;;;5.10;4.70;;;34.00;59.50;;;;;;4918201;29;20783;-84
2023/06/12 10:21:41;;;;;;;5.47;5.07;;;33.10;58.30;;;;;;4916029;29;21973;-82
2023/06/12 10:24:40;;;;;;;;;;;;;;;;;;;;;
2023/06/12 10:27:50;;;;;;;4.57;4.27;;;33.60;58.50;;;;;;4919818;29;20459;-84
2023/06/12 10:30:30;;;;;;;4.83;4.47;;;34.70;57.70;;;;;;4920365;29;20486;-85
2023/06/12 10:33:55;;;;;;;5.23;4.83;;;34.00;56.70;;;;;;4918979;29;20485;-85
2023/06/12 10:36:53;;;;;;;8.23;5.40;;;33.40;58.00;;;;;;4906239;29;20462;-86
2023/06/12 10:39:49;;;;;;;5.00;4.70;;;33.90;58.50;;;;;;4892600;29;20533;-81
2023/06/12 10:42:37;;;;;;;5.60;5.20;;;34.10;58.10;;;;;;4905410;29;20495;-84
2023/06/12 10:45:16;;;;;;;5.23;4.83;;;34.30;56.80;;;;;;4919978;29;20446;-85
2023/06/12 10:48:07;;;;;;;7.50;5.40;;;34.10;57.00;;;;;;4903440;29;20534;-84
2023/06/12 10:50:56;;;;;;;5.10;4.70;;;34.30;56.60;;;;;;4920514;29;20498;-85
2023/06/12 10:53:29;;;;;;;5.03;4.63;;;34.10;56.10;;;;;;4919859;29;20553;-83
2023/06/12 10:56:07;;;;;;;5.53;4.70;;;34.00;57.50;;;;;;4904327;29;20457;-84
2023/06/12 10:58:42;;;;;;;5.50;5.00;;;33.50;56.90;;;;;;4921041;29;20474;-86
2023/06/12 11:01:13;;;;;;;5.37;4.97;;;33.80;57.90;;;;;;4921492;29;20493;-85
2023/06/12 11:03:54;;;;;;;4.57;4.20;;;34.20;58.30;;;;;;4920736;29;21103;-82
2023/06/12 11:06:44;;;;;;;4.77;4.47;;;33.50;58.30;;;;;;4904735;29;20491;-84
2023/06/12 11:09:39;;;;;;;4.90;4.50;;;33.20;58.20;;;;;;4903624;29;20542;-81
2023/06/12 11:12:11;;;;;;;5.60;5.20;;;33.90;58.70;;;;;;4901984;29;20525;-84
2023/06/12 11:14:48;;;;;;;4.67;4.37;;;33.90;57.90;;;;;;4918908;29;20457;-84
2023/06/12 11:17:40;;;;;;;4.70;4.40;;;34.50;56.30;;;;;;4906498;29;21026;-84
2023/06/12 11:20:48;;;;;;;4.50;4.20;;;34.60;57.20;;;;;;4903817;29;20577;-82
2023/06/12 11:23:44;;;;;;;5.70;5.10;;;33.60;57.20;;;;;;4922958;29;20632;-81
2023/06/12 11:26:18;;;;;;;5.50;5.00;;;32.50;57.40;;;;;;4911112;29;20454;-84
2023/06/12 11:29:29;;;;;;;5.33;4.93;;;32.30;57.70;;;;;;4898228;29;20514;-85
2023/06/12 11:32:45;;;;;;;5.20;4.87;;;32.40;59.20;;;;;;4909094;29;20470;-84
2023/06/12 11:35:28;;;;;;;5.27;4.77;;;32.80;58.20;;;;;;4903517;29;20446;-85
2023/06/12 11:38:49;;;;;;;5.40;5.00;;;32.70;57.00;;;;;;4887311;29;20482;-82
2023/06/12 11:45:31;;;;;;;5.57;5.17;;;33.40;57.20;;;;;;4931762;29;20455;-82
2023/06/12 11:48:14;;;;;;;5.37;4.90;;;33.60;55.70;;;;;;4915727;29;20450;-83
2023/06/12 11:50:55;;;;;;;5.10;4.70;;;33.70;55.80;;;;;;4915063;29;20484;-85
2023/06/12 11:53:23;;;;;;;5.87;5.30;;;34.70;56.30;;;;;;4911910;29;21006;-85
2023/06/12 11:56:00;;;;;;;5.20;4.70;;;34.90;55.90;;;;;;4918394;29;20455;-85
2023/06/12 11:58:53;;;;;;;5.20;4.80;;;34.20;55.00;;;;;;4900666;29;20494;-82
2023/06/12 12:01:40;;;;;;;5.00;4.60;;;34.20;55.00;;;;;;4915521;29;20479;-84
2023/06/12 12:04:10;;;;;;;5.10;4.70;;;33.60;55.40;;;;;;4902230;29;20467;-84
2023/06/12 12:06:56;;;;;;;5.37;5.00;;;34.70;54.90;;;;;;4921340;29;20462;-85
2023/06/12 12:10:08;;;;;;;5.30;4.90;;;35.00;54.90;;;;;;4898671;29;20486;-85
2023/06/12 12:13:21;;;;;;;;;;;;;;;;;;;;;
2023/06/12 12:16:32;;;;;;;5.80;5.17;;;35.00;55.10;;;;;;4918748;29;20475;-85
2023/06/12 12:19:41;;;;;;;5.10;4.70;;;34.70;55.90;;;;;;4902245;29;21234;-85
2023/06/12 12:22:41;;;;;;;5.50;5.00;;;33.70;55.20;;;;;;4907380;29;20463;-84
2023/06/12 12:25:25;;;;;;;4.93;4.53;;;34.00;55.10;;;;;;4919925;29;20470;-85
2023/06/12 12:28:05;;;;;;;5.20;4.80;;;34.30;53.50;;;;;;4917721;29;20444;-82
2023/06/12 12:30:39;;;;;;;5.77;5.10;;;33.80;54.70;;;;;;4893885;29;20489;-85
2023/06/12 12:33:10;;;;;;;6.03;5.53;;;33.90;54.30;;;;;;4897472;29;20502;-84
2023/06/12 12:36:07;;;;;;;5.43;5.03;;;33.00;55.40;;;;;;4913720;29;20563;-85
2023/06/12 12:38:37;;;;;;;5.50;5.10;;;32.80;56.80;;;;;;4915924;29;20494;-86
2023/06/12 12:41:33;;;;;;;5.63;5.23;;;33.10;55.80;;;;;;4903766;29;20507;-86
2023/06/12 12:44:13;;;;;;;5.27;4.87;;;33.60;55.30;;;;;;4912139;29;20466;-84
2023/06/12 12:46:54;;;;;;;6.07;5.47;;;32.00;54.90;;;;;;4895270;29;20488;-81
2023/06/12 12:49:34;;;;;;;5.17;4.77;;;31.80;55.70;;;;;;4914275;29;20486;-84
2023/06/12 12:52:16;;;;;;;4.87;4.47;;;32.10;55.80;;;;;;4909922;29;20458;-85
2023/06/12 12:55:06;;;;;;;5.27;4.77;;;32.70;55.00;;;;;;4912220;29;20490;-85
2023/06/12 12:57:43;;;;;;;4.97;4.50;;;32.30;55.30;;;;;;4897430;29;20981;-84
2023/06/12 13:00:17;;;;;;;5.67;5.17;;;32.60;55.20;;;;;;4912594;29;20511;-83
2023/06/12 13:02:55;;;;;;;5.57;5.07;;;32.60;53.80;;;;;;4911139;29;20530;-86
2023/06/12 13:05:25;;;;;;;5.80;5.30;;;32.80;53.80;;;;;;4897542;29;20447;-84
2023/06/12 13:07:56;;;;;;;5.33;4.93;;;33.50;53.80;;;;;;4914878;29;20450;-84
2023/06/12 13:10:29;;;;;;;5.50;5.10;;;32.70;53.50;;;;;;4908454;29;20478;-85
2023/06/12 13:12:59;;;;;;;7.00;5.53;;;32.60;53.60;;;;;;4913989;29;20467;-84
2023/06/12 13:15:32;;;;;;;5.40;5.00;;;32.90;53.50;;;;;;4896042;29;20461;-84
2023/06/12 13:18:18;;;;;;;6.13;5.63;;;32.50;54.30;;;;;;4916695;29;21307;-83
2023/06/12 13:20:51;;;;;;;6.63;6.10;;;32.20;55.00;;;;;;4903492;29;20567;-84
2023/06/12 13:23:22;;;;;;;6.07;5.47;;;32.60;54.10;;;;;;4902408;29;20467;-83
2023/06/12 13:26:08;;;;;;;5.60;5.13;;;32.10;53.10;;;;;;4903846;29;20542;-84
2023/06/12 13:28:59;;;;;;;6.00;5.53;;;32.40;53.60;;;;;;4909591;29;20522;-84
2023/06/12 13:31:33;;;;;;;5.50;5.00;;;32.30;53.80;;;;;;4933552;29;20446;-83
2023/06/12 13:34:07;;;;;;;5.87;5.37;;;31.90;53.80;;;;;;4917492;29;20465;-82
2023/06/12 13:36:44;;;;;;;5.97;5.47;;;32.10;54.20;;;;;;4924439;29;20459;-82
2023/06/12 13:39:15;;;;;;;6.57;6.07;;;32.00;53.40;;;;;;4918335;29;20475;-81
2023/06/12 13:42:02;;;;;;;5.70;5.30;;;31.70;53.90;;;;;;4968406;23;20494;-83
2023/06/12 13:45:06;;;;;;;;;;;;;;;;;;;;;
2023/06/12 13:48:00;;;;;;;6.30;5.80;;;31.70;53.20;;;;;;4928132;29;20477;-85
2023/06/12 13:50:39;;;;;;;5.90;5.40;;;31.70;53.30;;;;;;4904551;29;20463;-82
2023/06/12 13:53:35;;;;;;;5.93;5.43;;;31.90;53.20;;;;;;4897043;29;20452;-83
2023/06/12 13:56:16;;;;;;;5.60;5.20;;;31.80;53.70;;;;;;4893390;29;20465;-84
2023/06/12 13:59:16;;;;;;;6.00;5.43;;;31.80;52.90;;;;;;4893107;29;20463;-82
2023/06/12 14:01:50;;;;;;;7.37;6.73;;;31.80;53.90;;;;;;4905784;29;20446;-85
2023/06/12 14:04:25;;;;;;;5.80;5.30;;;31.60;53.70;;;;;;4888783;29;20579;-83
2023/06/12 14:06:58;;;;;;;5.40;4.97;;;31.80;53.80;;;;;;4902541;29;20531;-86
2023/06/12 14:09:31;;;;;;;7.03;6.43;;;31.00;53.00;;;;;;4892027;29;20479;-85
2023/06/12 14:12:01;;;;;;;5.93;5.53;;;30.90;53.50;;;;;;4890125;29;21031;-85
2023/06/12 14:14:36;;;;;;;5.87;5.33;;;29.60;53.80;;;;;;4893011;29;20463;-85
2023/06/12 14:17:18;;;;;;;6.40;5.90;;;31.40;55.30;;;;;;4876132;29;20466;-84
2023/06/12 14:19:50;;;;;;;6.77;4.47;;;31.70;55.10;;;;;;4891901;29;20498;-86
2023/06/12 14:22:33;;;;;;;5.73;5.23;;;31.70;53.70;;;;;;4891768;29;20471;-86
2023/06/12 14:25:00;;;;;;;6.07;5.57;;;31.80;52.40;;;;;;4871360;29;20456;-83
2023/06/12 14:27:58;;;;;;;6.13;5.63;;;31.70;53.20;;;;;;4889904;29;21065;-85
2023/06/12 14:30:34;;;;;;;5.60;5.20;;;31.30;52.60;;;;;;4891445;29;20512;-83
2023/06/12 14:33:03;;;;;;;6.40;5.87;;;31.60;54.20;;;;;;4890904;29;20459;-85
2023/06/12 14:35:33;;;;;;;5.90;5.40;;;31.50;53.10;;;;;;4888912;29;20479;-85
2023/06/12 14:38:04;;;;;;;5.73;5.23;;;31.40;52.40;;;;;;4891071;29;20466;-85
2023/06/12 14:40:35;;;;;;;6.50;5.90;;;31.10;53.00;;;;;;4875066;29;20495;-84
2023/06/12 14:43:08;;;;;;;6.13;5.63;;;31.10;53.30;;;;;;4887659;29;20963;-84
2023/06/12 14:45:41;;;;;;;5.40;5.00;;;31.10;53.00;;;;;;4886635;29;20463;-85
2023/06/12 14:48:09;;;;;;;5.40;4.90;;;31.30;53.20;;;;;;4886155;29;20476;-84
2023/06/12 14:50:39;;;;;;;5.43;4.93;;;31.20;53.30;;;;;;4889361;29;20492;-85
2023/06/12 14:53:12;;;;;;;6.07;5.57;;;31.30;53.20;;;;;;4885340;29;20487;-84
2023/06/12 14:55:42;;;;;;;5.70;5.30;;;31.30;52.80;;;;;;4884324;29;21761;-84
2023/06/12 14:58:12;;;;;;;6.30;5.70;;;31.40;53.10;;;;;;4875222;29;20519;-84
2023/06/12 15:00:45;;;;;;;5.87;5.43;;;31.40;53.80;;;;;;4869317;29;20626;-84
2023/06/12 15:03:23;;;;;;;5.93;5.43;;;32.00;54.80;;;;;;4888224;29;20462;-86
2023/06/12 15:05:58;;;;;;;6.40;5.87;;;31.80;54.30;;;;;;4875808;29;20460;-83
2023/06/12 15:08:33;;;;;;;5.80;5.20;;;31.20;54.10;;;;;;4885434;29;20539;-85
2023/06/12 15:11:07;;;;;;;6.33;5.73;;;31.10;53.60;;;;;;4889190;29;20491;-84
2023/06/12 15:13:42;;;;;;;6.37;5.87;;;;;;;;;;4891283;29;20463;-85
2023/06/12 15:16:16;;;;;;;6.33;5.83;;;31.00;54.20;;;;;;4887488;29;20507;-83
2023/06/12 15:18:54;;;;;;;6.40;5.90;;;30.90;54.20;;;;;;4877648;29;20447;-85
2023/06/12 15:21:43;;;;;;;6.83;5.30;;;30.10;53.80;;;;;;4875201;29;20451;-85
2023/06/12 15:24:13;;;;;;;5.53;5.13;;;30.80;54.60;;;;;;4889405;29;20460;-84
2023/06/12 15:26:50;;;;;;;5.93;5.43;;;30.80;55.20;;;;;;4892072;29;20496;-84
2023/06/12 15:29:23;;;;;;;5.97;5.43;;;30.80;54.20;;;;;;4893282;29;20525;-85
2023/06/12 15:31:53;;;;;;;6.37;5.87;;;30.70;54.20;;;;;;4898896;29;20502;-83
2023/06/12 15:34:25;;;;;;;7.00;5.80;;;31.30;54.70;;;;;;4888123;29;20451;-85
2023/06/12 15:36:55;;;;;;;6.10;5.60;;;30.80;54.00;;;;;;4899639;29;20489;-85
2023/06/12 15:39:29;;;;;;;7.00;6.30;;;30.80;54.10;;;;;;4882100;29;20492;-84
2023/06/12 15:41:59;;;;;;;5.87;5.37;;;30.70;54.30;;;;;;4895372;29;20475;-86
2023/06/12 15:44:29;;;;;;;6.23;5.73;;;31.00;55.40;;;;;;4892415;29;20494;-84
2023/06/12 15:47:00;;;;;;;5.90;5.40;;;31.00;53.70;;;;;;4880986;29;20645;-83
2023/06/12 15:49:30;;;;;;;6.70;6.10;;;31.00;54.40;;;;;;4898454;29;20527;-84
2023/06/12 15:51:59;;;;;;;6.43;5.83;;;30.50;54.10;;;;;;4899926;29;20450;-84
2023/06/12 15:54:31;;;;;;;5.80;5.40;;;31.00;54.10;;;;;;4884079;29;20459;-83
2023/06/12 15:57:02;;;;;;;6.13;5.53;;;30.90;54.70;;;;;;4884936;29;20520;-84
2023/06/12 15:59:35;;;;;;;6.23;5.73;;;30.90;54.60;;;;;;4904478;29;20968;-85
2023/06/12 16:02:25;;;;;;;7.00;6.40;;;30.80;54.20;;;;;;4972970;23;20500;-82
2023/06/12 16:04:56;;;;;;;6.97;6.37;;;30.70;54.30;;;;;;4884459;29;20540;-83
2023/06/12 16:07:40;;;;;;;6.43;5.90;;;30.60;54.80;;;;;;4897029;29;20465;-85
2023/06/12 16:10:17;;;;;;;6.20;5.70;;;30.70;54.80;;;;;;4895881;29;20463;-83
2023/06/12 16:12:52;;;;;;;6.50;5.90;;;30.40;54.40;;;;;;4894743;29;20443;-83
2023/06/12 16:15:30;;;;;;;6.77;6.27;;;30.40;54.40;;;;;;4890685;29;20480;-82
2023/06/12 16:18:03;;;;;;;5.37;4.97;;;30.80;54.30;;;;;;4894139;29;20447;-82
2023/06/12 16:20:39;;;;;;;6.60;6.00;;;30.80;54.90;;;;;;4889879;29;20889;-84
2023/06/12 16:23:06;;;;;;;6.07;5.47;;;30.50;55.00;;;;;;4882791;29;21293;-84
2023/06/12 16:25:46;;;;;;;7.43;6.83;;;30.80;54.60;;;;;;4881750;29;20467;-83
2023/06/12 16:28:38;;;;;;;6.00;5.50;;;30.80;56.10;;;;;;4886633;29;20418;-84
2023/06/12 16:31:16;;;;;;;6.53;6.00;;;31.00;56.10;;;;;;4874717;29;21106;-83
2023/06/12 16:33:51;;;;;;;5.87;5.40;;;30.70;54.60;;;;;;4870999;29;20476;-84
2023/06/12 16:36:28;;;;;;;6.47;5.87;;;30.60;55.30;;;;;;4890163;29;20476;-84
2023/06/12 16:39:13;;;;;;;;;;;;;;;;;;;;;
2023/06/12 16:41:41;;;;;;;6.93;6.33;;;30.80;55.80;;;;;;4919435;23;20486;-82